sensor_id;sensor_type;location;lat;lon;timestamp;temperature;humidity
8463;DHT22;4268;52.506;13.462;2024-02-23T00:01:28;10.50;99.90
8463;DHT22;4268;52.506;13.462;2024-02-23T00:03:54;10.50;99.90
8463;DHT22;4268;52.506;13.462;2024-02-23T00:06:21;10.50;99.90
8463;DHT22;4268;52.506;13.462;2024-02-23T00:08:48;10.50;99.90
8463;DHT22;4268;52.506;13.462;2024-02-23T00:11:13;10.50;99.90
8463;DHT22;4268;52.506;13.462;2024-02-23T00:13:39;10.50;99.90
8463;DHT22;4268;52.506;13.462;2024-02-23T00:16:04;10.50;99.90
8463;DHT22;4268;52.506;13.462;2024-02-23T00:18:30;10.60;99.90
8463;DHT22;4268;52.506;13.462;2024-02-23T00:20:56;10.60;99.90
8463;DHT22;4268;52.506;13.462;2024-02-23T00:23:21;10.70;99.90
8463;DHT22;4268;52.506;13.462;2024-02-23T00:25:47;10.70;99.90
8463;DHT22;4268;52.506;13.462;2024-02-23T00:28:13;10.70;99.90
8463;DHT22;4268;52.506;13.462;2024-02-23T00:30:38;10.70;99.90
8463;DHT22;4268;52.506;13.462;2024-02-23T00:33:04;10.80;99.90
8463;DHT22;4268;52.506;13.462;2024-02-23T00:35:30;10.80;99.90
8463;DHT22;4268;52.506;13.462;2024-02-23T00:37:56;10.80;99.90
8463;DHT22;4268;52.506;13.462;2024-02-23T00:40:21;10.70;99.90
8463;DHT22;4268;52.506;13.462;2024-02-23T00:42:48;10.70;99.90
8463;DHT22;4268;52.506;13.462;2024-02-23T00:45:14;10.60;99.90
8463;DHT22;4268;52.506;13.462;2024-02-23T00:47:40;10.60;99.90
8463;DHT22;4268;52.506;13.462;2024-02-23T00:50:05;10.60;99.90
8463;DHT22;4268;52.506;13.462;2024-02-23T00:52:31;10.50;99.90
8463;DHT22;4268;52.506;13.462;2024-02-23T00:54:57;10.50;99.90
8463;DHT22;4268;52.506;13.462;2024-02-23T00:57:23;10.50;99.90
8463;DHT22;4268;52.506;13.462;2024-02-23T00:59:52;10.50;99.90
8463;DHT22;4268;52.506;13.462;2024-02-23T01:02:18;10.50;99.90
8463;DHT22;4268;52.506;13.462;2024-02-23T01:04:44;10.50;99.90
8463;DHT22;4268;52.506;13.462;2024-02-23T01:07:09;10.50;99.90
8463;DHT22;4268;52.506;13.462;2024-02-23T01:09:35;10.50;99.90
8463;DHT22;4268;52.506;13.462;2024-02-23T01:12:01;10.50;99.90
8463;DHT22;4268;52.506;13.462;2024-02-23T01:14:27;10.50;99.90
8463;DHT22;4268;52.506;13.462;2024-02-23T01:16:52;10.60;99.90
8463;DHT22;4268;52.506;13.462;2024-02-23T01:19:17;10.70;99.90
8463;DHT22;4268;52.506;13.462;2024-02-23T01:21:44;10.70;99.90
8463;DHT22;4268;52.506;13.462;2024-02-23T01:24:09;10.70;99.90
8463;DHT22;4268;52.506;13.462;2024-02-23T01:26:35;10.80;99.90
8463;DHT22;4268;52.506;13.462;2024-02-23T01:29:01;10.80;99.90
8463;DHT22;4268;52.506;13.462;2024-02-23T01:31:27;10.80;99.90
8463;DHT22;4268;52.506;13.462;2024-02-23T01:33:52;10.80;99.90
8463;DHT22;4268;52.506;13.462;2024-02-23T01:36:18;10.80;99.90
8463;DHT22;4268;52.506;13.462;2024-02-23T01:38:43;10.80;99.90
8463;DHT22;4268;52.506;13.462;2024-02-23T01:41:09;10.80;99.90
8463;DHT22;4268;52.506;13.462;2024-02-23T01:43:36;10.80;99.90
8463;DHT22;4268;52.506;13.462;2024-02-23T01:46:03;10.80;99.90
8463;DHT22;4268;52.506;13.462;2024-02-23T01:48:32;10.90;99.90
8463;DHT22;4268;52.506;13.462;2024-02-23T01:50:58;10.90;99.90
8463;DHT22;4268;52.506;13.462;2024-02-23T01:53:24;10.90;99.90
8463;DHT22;4268;52.506;13.462;2024-02-23T01:55:51;10.90;99.90
8463;DHT22;4268;52.506;13.462;2024-02-23T01:58:18;10.90;99.90
8463;DHT22;4268;52.506;13.462;2024-02-23T02:00:45;10.90;99.90
8463;DHT22;4268;52.506;13.462;2024-02-23T02:03:10;11.00;99.90
8463;DHT22;4268;52.506;13.462;2024-02-23T02:05:39;11.00;99.90
8463;DHT22;4268;52.506;13.462;2024-02-23T02:08:10;11.00;99.90
8463;DHT22;4268;52.506;13.462;2024-02-23T02:10:36;10.90;99.90
8463;DHT22;4268;52.506;13.462;2024-02-23T02:13:05;11.00;99.90
8463;DHT22;4268;52.506;13.462;2024-02-23T02:15:31;11.00;99.90
8463;DHT22;4268;52.506;13.462;2024-02-23T02:17:57;11.00;99.90
8463;DHT22;4268;52.506;13.462;2024-02-23T02:20:25;11.00;99.90
8463;DHT22;4268;52.506;13.462;2024-02-23T02:22:51;11.00;99.90
8463;DHT22;4268;52.506;13.462;2024-02-23T02:25:17;11.00;99.90
8463;DHT22;4268;52.506;13.462;2024-02-23T02:27:43;11.00;99.90
8463;DHT22;4268;52.506;13.462;2024-02-23T02:30:11;11.00;99.90
8463;DHT22;4268;52.506;13.462;2024-02-23T02:32:37;11.00;99.90
8463;DHT22;4268;52.506;13.462;2024-02-23T02:35:02;10.90;99.90
8463;DHT22;4268;52.506;13.462;2024-02-23T02:37:28;10.90;99.90
8463;DHT22;4268;52.506;13.462;2024-02-23T02:39:53;10.90;99.90
8463;DHT22;4268;52.506;13.462;2024-02-23T02:42:19;10.90;99.90
8463;DHT22;4268;52.506;13.462;2024-02-23T02:44:44;10.80;99.90
8463;DHT22;4268;52.506;13.462;2024-02-23T02:47:10;10.80;99.90
8463;DHT22;4268;52.506;13.462;2024-02-23T02:49:35;10.70;99.90
8463;DHT22;4268;52.506;13.462;2024-02-23T02:52:01;10.70;99.90
8463;DHT22;4268;52.506;13.462;2024-02-23T02:54:27;10.60;99.90
8463;DHT22;4268;52.506;13.462;2024-02-23T02:56:52;10.60;99.90
8463;DHT22;4268;52.506;13.462;2024-02-23T02:59:20;10.60;99.90
8463;DHT22;4268;52.506;13.462;2024-02-23T03:01:45;10.50;99.90
8463;DHT22;4268;52.506;13.462;2024-02-23T03:04:12;10.50;99.90
8463;DHT22;4268;52.506;13.462;2024-02-23T03:06:38;10.50;99.90
8463;DHT22;4268;52.506;13.462;2024-02-23T03:09:03;10.40;99.90
8463;DHT22;4268;52.506;13.462;2024-02-23T03:11:30;10.40;99.90
8463;DHT22;4268;52.506;13.462;2024-02-23T03:13:55;10.40;99.90
8463;DHT22;4268;52.506;13.462;2024-02-23T03:16:21;10.40;99.90
8463;DHT22;4268;52.506;13.462;2024-02-23T03:18:48;10.30;99.90
8463;DHT22;4268;52.506;13.462;2024-02-23T03:21:14;10.30;99.90
8463;DHT22;4268;52.506;13.462;2024-02-23T03:23:40;10.30;99.90
8463;DHT22;4268;52.506;13.462;2024-02-23T03:26:07;10.20;99.90
8463;DHT22;4268;52.506;13.462;2024-02-23T03:28:33;10.10;99.90
8463;DHT22;4268;52.506;13.462;2024-02-23T03:30:59;10.10;99.90
8463;DHT22;4268;52.506;13.462;2024-02-23T03:33:25;10.00;99.90
8463;DHT22;4268;52.506;13.462;2024-02-23T03:35:50;10.10;99.90
8463;DHT22;4268;52.506;13.462;2024-02-23T03:38:16;10.10;99.90
8463;DHT22;4268;52.506;13.462;2024-02-23T03:40:41;10.00;99.90
8463;DHT22;4268;52.506;13.462;2024-02-23T03:43:07;10.00;99.90
8463;DHT22;4268;52.506;13.462;2024-02-23T03:45:33;9.90;99.90
8463;DHT22;4268;52.506;13.462;2024-02-23T03:47:59;9.90;99.90
8463;DHT22;4268;52.506;13.462;2024-02-23T03:50:25;9.90;99.90
8463;DHT22;4268;52.506;13.462;2024-02-23T03:52:51;9.90;99.90
8463;DHT22;4268;52.506;13.462;2024-02-23T03:55:16;9.80;99.90
8463;DHT22;4268;52.506;13.462;2024-02-23T03:57:42;9.80;99.90
8463;DHT22;4268;52.506;13.462;2024-02-23T04:00:08;9.80;99.90
8463;DHT22;4268;52.506;13.462;2024-02-23T04:02:34;9.70;99.90
8463;DHT22;4268;52.506;13.462;2024-02-23T04:05:00;9.70;99.90
8463;DHT22;4268;52.506;13.462;2024-02-23T04:07:26;9.70;99.90
8463;DHT22;4268;52.506;13.462;2024-02-23T04:09:52;9.70;99.90
8463;DHT22;4268;52.506;13.462;2024-02-23T04:12:20;9.70;99.90
8463;DHT22;4268;52.506;13.462;2024-02-23T04:14:46;9.70;99.90
8463;DHT22;4268;52.506;13.462;2024-02-23T04:17:12;9.60;99.90
8463;DHT22;4268;52.506;13.462;2024-02-23T04:19:37;9.60;99.90
8463;DHT22;4268;52.506;13.462;2024-02-23T04:22:04;9.60;99.90
8463;DHT22;4268;52.506;13.462;2024-02-23T04:24:29;9.60;99.90
8463;DHT22;4268;52.506;13.462;2024-02-23T04:26:55;9.60;99.90
8463;DHT22;4268;52.506;13.462;2024-02-23T04:29:20;9.60;99.90
8463;DHT22;4268;52.506;13.462;2024-02-23T04:31:46;9.60;99.90
8463;DHT22;4268;52.506;13.462;2024-02-23T04:34:11;9.60;99.90
8463;DHT22;4268;52.506;13.462;2024-02-23T04:36:37;9.60;99.90
8463;DHT22;4268;52.506;13.462;2024-02-23T04:39:02;9.50;99.90
8463;DHT22;4268;52.506;13.462;2024-02-23T04:41:28;9.50;99.90
8463;DHT22;4268;52.506;13.462;2024-02-23T04:43:53;9.50;99.90
8463;DHT22;4268;52.506;13.462;2024-02-23T04:46:25;9.50;99.90
8463;DHT22;4268;52.506;13.462;2024-02-23T04:48:50;9.40;99.90
8463;DHT22;4268;52.506;13.462;2024-02-23T04:51:16;9.40;99.90
8463;DHT22;4268;52.506;13.462;2024-02-23T04:53:41;9.40;99.90
8463;DHT22;4268;52.506;13.462;2024-02-23T04:56:07;9.50;99.90
8463;DHT22;4268;52.506;13.462;2024-02-23T04:58:32;9.60;99.90
8463;DHT22;4268;52.506;13.462;2024-02-23T05:00:58;9.50;99.90
8463;DHT22;4268;52.506;13.462;2024-02-23T05:03:23;9.50;99.90
8463;DHT22;4268;52.506;13.462;2024-02-23T05:05:49;9.50;99.90
8463;DHT22;4268;52.506;13.462;2024-02-23T05:08:21;9.40;99.90
8463;DHT22;4268;52.506;13.462;2024-02-23T05:10:49;9.40;99.90
8463;DHT22;4268;52.506;13.462;2024-02-23T05:13:16;9.40;99.90
8463;DHT22;4268;52.506;13.462;2024-02-23T05:15:41;9.40;99.90
8463;DHT22;4268;52.506;13.462;2024-02-23T05:18:07;9.30;99.90
8463;DHT22;4268;52.506;13.462;2024-02-23T05:20:33;9.40;99.90
8463;DHT22;4268;52.506;13.462;2024-02-23T05:22:58;9.40;99.90
8463;DHT22;4268;52.506;13.462;2024-02-23T05:25:24;9.30;99.90
8463;DHT22;4268;52.506;13.462;2024-02-23T05:27:51;9.30;99.90
8463;DHT22;4268;52.506;13.462;2024-02-23T05:30:16;9.20;99.90
8463;DHT22;4268;52.506;13.462;2024-02-23T05:32:42;9.20;99.90
8463;DHT22;4268;52.506;13.462;2024-02-23T05:35:07;9.20;99.90
8463;DHT22;4268;52.506;13.462;2024-02-23T05:37:37;9.30;99.90
8463;DHT22;4268;52.506;13.462;2024-02-23T05:40:03;9.20;99.90
8463;DHT22;4268;52.506;13.462;2024-02-23T05:42:32;9.10;99.90
8463;DHT22;4268;52.506;13.462;2024-02-23T05:44:58;9.10;99.90
8463;DHT22;4268;52.506;13.462;2024-02-23T05:47:23;9.00;99.90
8463;DHT22;4268;52.506;13.462;2024-02-23T05:49:50;8.70;99.90
8463;DHT22;4268;52.506;13.462;2024-02-23T05:52:15;8.80;99.90
8463;DHT22;4268;52.506;13.462;2024-02-23T05:54:41;8.80;99.90
8463;DHT22;4268;52.506;13.462;2024-02-23T05:57:06;8.70;99.90
8463;DHT22;4268;52.506;13.462;2024-02-23T05:59:32;8.70;99.90
8463;DHT22;4268;52.506;13.462;2024-02-23T06:01:57;8.50;99.90
8463;DHT22;4268;52.506;13.462;2024-02-23T06:04:23;8.50;99.90
8463;DHT22;4268;52.506;13.462;2024-02-23T06:06:49;8.60;99.90
8463;DHT22;4268;52.506;13.462;2024-02-23T06:09:15;8.50;99.90
8463;DHT22;4268;52.506;13.462;2024-02-23T06:11:41;8.40;99.90
8463;DHT22;4268;52.506;13.462;2024-02-23T06:14:07;8.40;99.90
8463;DHT22;4268;52.506;13.462;2024-02-23T06:16:33;8.40;99.90
8463;DHT22;4268;52.506;13.462;2024-02-23T06:18:58;8.40;99.90
8463;DHT22;4268;52.506;13.462;2024-02-23T06:21:24;8.40;99.90
8463;DHT22;4268;52.506;13.462;2024-02-23T06:23:50;8.40;99.90
8463;DHT22;4268;52.506;13.462;2024-02-23T06:26:15;8.40;99.90
8463;DHT22;4268;52.506;13.462;2024-02-23T06:28:41;8.30;99.90
8463;DHT22;4268;52.506;13.462;2024-02-23T06:31:07;8.30;99.90
8463;DHT22;4268;52.506;13.462;2024-02-23T06:33:33;8.30;99.90
8463;DHT22;4268;52.506;13.462;2024-02-23T06:35:59;8.30;99.90
8463;DHT22;4268;52.506;13.462;2024-02-23T06:38:24;8.30;99.90
8463;DHT22;4268;52.506;13.462;2024-02-23T06:40:51;8.30;99.90
8463;DHT22;4268;52.506;13.462;2024-02-23T06:43:16;8.30;99.90
8463;DHT22;4268;52.506;13.462;2024-02-23T06:45:42;8.30;99.90
8463;DHT22;4268;52.506;13.462;2024-02-23T06:48:08;8.40;99.90
8463;DHT22;4268;52.506;13.462;2024-02-23T06:50:33;8.40;99.90
8463;DHT22;4268;52.506;13.462;2024-02-23T06:52:59;8.50;99.90
8463;DHT22;4268;52.506;13.462;2024-02-23T06:55:24;8.50;99.90
8463;DHT22;4268;52.506;13.462;2024-02-23T06:57:50;8.60;99.90
8463;DHT22;4268;52.506;13.462;2024-02-23T07:00:16;8.60;99.90
8463;DHT22;4268;52.506;13.462;2024-02-23T07:02:41;8.60;99.90
8463;DHT22;4268;52.506;13.462;2024-02-23T07:05:07;8.60;99.90
8463;DHT22;4268;52.506;13.462;2024-02-23T07:07:34;8.70;99.90
8463;DHT22;4268;52.506;13.462;2024-02-23T07:10:00;8.80;99.90
8463;DHT22;4268;52.506;13.462;2024-02-23T07:12:25;8.90;99.90
8463;DHT22;4268;52.506;13.462;2024-02-23T07:14:57;9.10;99.90
8463;DHT22;4268;52.506;13.462;2024-02-23T07:17:23;9.20;99.90
8463;DHT22;4268;52.506;13.462;2024-02-23T07:19:49;9.20;99.90
8463;DHT22;4268;52.506;13.462;2024-02-23T07:22:16;9.30;99.90
8463;DHT22;4268;52.506;13.462;2024-02-23T07:24:43;9.40;99.90
8463;DHT22;4268;52.506;13.462;2024-02-23T07:27:08;9.30;99.90
8463;DHT22;4268;52.506;13.462;2024-02-23T07:29:34;9.40;99.90
8463;DHT22;4268;52.506;13.462;2024-02-23T07:31:59;9.40;99.90
8463;DHT22;4268;52.506;13.462;2024-02-23T07:34:25;9.40;99.90
8463;DHT22;4268;52.506;13.462;2024-02-23T07:36:54;9.40;99.90
8463;DHT22;4268;52.506;13.462;2024-02-23T07:39:20;9.40;99.90
8463;DHT22;4268;52.506;13.462;2024-02-23T07:41:47;9.30;99.90
8463;DHT22;4268;52.506;13.462;2024-02-23T07:44:12;9.30;99.90
8463;DHT22;4268;52.506;13.462;2024-02-23T07:46:38;9.20;99.90
8463;DHT22;4268;52.506;13.462;2024-02-23T07:49:04;9.10;99.90
8463;DHT22;4268;52.506;13.462;2024-02-23T07:51:31;9.10;99.90
8463;DHT22;4268;52.506;13.462;2024-02-23T07:53:57;9.20;99.90
8463;DHT22;4268;52.506;13.462;2024-02-23T07:56:22;9.20;99.90
8463;DHT22;4268;52.506;13.462;2024-02-23T07:58:48;9.20;99.90
8463;DHT22;4268;52.506;13.462;2024-02-23T08:01:16;9.40;99.90
8463;DHT22;4268;52.506;13.462;2024-02-23T08:03:43;9.40;99.90
8463;DHT22;4268;52.506;13.462;2024-02-23T08:06:08;9.40;99.90
8463;DHT22;4268;52.506;13.462;2024-02-23T08:08:35;9.50;99.90
8463;DHT22;4268;52.506;13.462;2024-02-23T08:11:01;9.70;99.90
8463;DHT22;4268;52.506;13.462;2024-02-23T08:13:27;9.70;99.90
8463;DHT22;4268;52.506;13.462;2024-02-23T08:15:53;9.80;99.90
8463;DHT22;4268;52.506;13.462;2024-02-23T08:18:18;9.90;99.90
8463;DHT22;4268;52.506;13.462;2024-02-23T08:20:44;10.00;99.70
8463;DHT22;4268;52.506;13.462;2024-02-23T08:23:09;10.10;99.70
8463;DHT22;4268;52.506;13.462;2024-02-23T08:25:36;10.10;99.50
8463;DHT22;4268;52.506;13.462;2024-02-23T08:28:02;10.20;99.30
8463;DHT22;4268;52.506;13.462;2024-02-23T08:30:27;10.20;99.10
8463;DHT22;4268;52.506;13.462;2024-02-23T08:32:53;10.10;98.80
8463;DHT22;4268;52.506;13.462;2024-02-23T08:35:18;10.00;98.90
8463;DHT22;4268;52.506;13.462;2024-02-23T08:37:44;10.00;99.10
8463;DHT22;4268;52.506;13.462;2024-02-23T08:40:10;9.90;99.50
8463;DHT22;4268;52.506;13.462;2024-02-23T08:42:36;9.80;99.60
8463;DHT22;4268;52.506;13.462;2024-02-23T08:45:02;9.80;99.50
8463;DHT22;4268;52.506;13.462;2024-02-23T08:47:27;9.70;99.50
8463;DHT22;4268;52.506;13.462;2024-02-23T08:49:57;9.80;99.30
8463;DHT22;4268;52.506;13.462;2024-02-23T08:52:23;9.70;98.90
8463;DHT22;4268;52.506;13.462;2024-02-23T08:54:49;9.80;99.20
8463;DHT22;4268;52.506;13.462;2024-02-23T08:57:14;9.80;99.10
8463;DHT22;4268;52.506;13.462;2024-02-23T08:59:47;9.80;99.10
8463;DHT22;4268;52.506;13.462;2024-02-23T09:02:12;9.90;99.00
8463;DHT22;4268;52.506;13.462;2024-02-23T09:04:38;9.80;98.30
8463;DHT22;4268;52.506;13.462;2024-02-23T09:07:04;9.90;98.30
8463;DHT22;4268;52.506;13.462;2024-02-23T09:09:30;10.00;97.70
8463;DHT22;4268;52.506;13.462;2024-02-23T09:11:55;10.10;97.70
8463;DHT22;4268;52.506;13.462;2024-02-23T09:14:21;10.10;97.80
8463;DHT22;4268;52.506;13.462;2024-02-23T09:16:46;10.20;97.60
8463;DHT22;4268;52.506;13.462;2024-02-23T09:19:12;10.20;97.50
8463;DHT22;4268;52.506;13.462;2024-02-23T09:21:38;10.30;97.90
8463;DHT22;4268;52.506;13.462;2024-02-23T09:24:04;10.40;97.10
8463;DHT22;4268;52.506;13.462;2024-02-23T09:26:30;10.50;96.70
8463;DHT22;4268;52.506;13.462;2024-02-23T09:28:56;10.50;96.50
8463;DHT22;4268;52.506;13.462;2024-02-23T09:31:22;10.60;96.70
8463;DHT22;4268;52.506;13.462;2024-02-23T09:33:47;10.60;96.80
8463;DHT22;4268;52.506;13.462;2024-02-23T09:36:16;10.60;97.00
8463;DHT22;4268;52.506;13.462;2024-02-23T09:38:41;10.70;97.10
8463;DHT22;4268;52.506;13.462;2024-02-23T09:41:15;10.70;97.10
8463;DHT22;4268;52.506;13.462;2024-02-23T09:43:44;10.70;97.10
8463;DHT22;4268;52.506;13.462;2024-02-23T09:46:11;10.80;96.50
8463;DHT22;4268;52.506;13.462;2024-02-23T09:48:38;10.80;95.90
8463;DHT22;4268;52.506;13.462;2024-02-23T09:51:04;10.60;95.50
8463;DHT22;4268;52.506;13.462;2024-02-23T09:53:31;10.60;96.00
8463;DHT22;4268;52.506;13.462;2024-02-23T09:55:58;10.70;95.50
8463;DHT22;4268;52.506;13.462;2024-02-23T09:58:24;10.70;95.40
8463;DHT22;4268;52.506;13.462;2024-02-23T10:00:52;10.70;94.90
8463;DHT22;4268;52.506;13.462;2024-02-23T10:03:17;10.80;95.00
8463;DHT22;4268;52.506;13.462;2024-02-23T10:05:43;10.80;94.80
8463;DHT22;4268;52.506;13.462;2024-02-23T10:08:10;10.90;94.70
8463;DHT22;4268;52.506;13.462;2024-02-23T10:10:37;10.90;94.60
8463;DHT22;4268;52.506;13.462;2024-02-23T10:13:02;11.10;94.70
8463;DHT22;4268;52.506;13.462;2024-02-23T10:15:31;11.10;94.70
8463;DHT22;4268;52.506;13.462;2024-02-23T10:17:56;11.00;94.90
8463;DHT22;4268;52.506;13.462;2024-02-23T10:20:22;10.70;95.30
8463;DHT22;4268;52.506;13.462;2024-02-23T10:22:48;10.60;95.70
8463;DHT22;4268;52.506;13.462;2024-02-23T10:25:14;10.70;96.00
8463;DHT22;4268;52.506;13.462;2024-02-23T10:27:41;10.80;96.20
8463;DHT22;4268;52.506;13.462;2024-02-23T10:30:08;10.90;96.30
8463;DHT22;4268;52.506;13.462;2024-02-23T10:32:38;10.90;95.90
8463;DHT22;4268;52.506;13.462;2024-02-23T10:35:15;11.10;95.70
8463;DHT22;4268;52.506;13.462;2024-02-23T10:37:43;11.40;95.60
8463;DHT22;4268;52.506;13.462;2024-02-23T10:40:13;11.40;95.20
8463;DHT22;4268;52.506;13.462;2024-02-23T10:42:39;11.40;95.10
8463;DHT22;4268;52.506;13.462;2024-02-23T10:45:07;11.50;95.00
8463;DHT22;4268;52.506;13.462;2024-02-23T10:47:33;11.10;95.00
8463;DHT22;4268;52.506;13.462;2024-02-23T10:50:01;11.20;95.00
8463;DHT22;4268;52.506;13.462;2024-02-23T10:52:30;11.30;94.20
8463;DHT22;4268;52.506;13.462;2024-02-23T10:54:57;11.30;93.20
8463;DHT22;4268;52.506;13.462;2024-02-23T10:57:26;11.30;93.20
8463;DHT22;4268;52.506;13.462;2024-02-23T10:59:51;11.40;93.00
8463;DHT22;4268;52.506;13.462;2024-02-23T11:02:19;11.30;92.40
8463;DHT22;4268;52.506;13.462;2024-02-23T11:04:50;11.30;92.30
8463;DHT22;4268;52.506;13.462;2024-02-23T11:07:18;11.30;92.30
8463;DHT22;4268;52.506;13.462;2024-02-23T11:09:52;11.40;92.60
8463;DHT22;4268;52.506;13.462;2024-02-23T11:12:25;11.40;92.10
8463;DHT22;4268;52.506;13.462;2024-02-23T11:14:51;11.50;92.10
8463;DHT22;4268;52.506;13.462;2024-02-23T11:17:20;11.70;92.30
8463;DHT22;4268;52.506;13.462;2024-02-23T11:19:48;11.60;92.10
8463;DHT22;4268;52.506;13.462;2024-02-23T11:22:14;11.20;92.10
8463;DHT22;4268;52.506;13.462;2024-02-23T11:24:44;11.10;91.90
8463;DHT22;4268;52.506;13.462;2024-02-23T11:27:14;11.00;91.90
8463;DHT22;4268;52.506;13.462;2024-02-23T11:29:42;10.90;91.90
8463;DHT22;4268;52.506;13.462;2024-02-23T11:32:15;11.10;92.10
8463;DHT22;4268;52.506;13.462;2024-02-23T11:34:41;11.20;91.70
8463;DHT22;4268;52.506;13.462;2024-02-23T11:37:10;11.30;91.70
8463;DHT22;4268;52.506;13.462;2024-02-23T11:39:39;11.40;91.60
8463;DHT22;4268;52.506;13.462;2024-02-23T11:42:06;11.40;91.40
8463;DHT22;4268;52.506;13.462;2024-02-23T11:44:31;11.50;91.40
8463;DHT22;4268;52.506;13.462;2024-02-23T11:46:58;11.60;91.30
8463;DHT22;4268;52.506;13.462;2024-02-23T11:49:30;11.60;91.40
8463;DHT22;4268;52.506;13.462;2024-02-23T11:51:56;11.50;91.50
8463;DHT22;4268;52.506;13.462;2024-02-23T11:54:22;11.50;91.50
8463;DHT22;4268;52.506;13.462;2024-02-23T11:56:48;11.50;91.20
8463;DHT22;4268;52.506;13.462;2024-02-23T11:59:15;11.50;91.10
8463;DHT22;4268;52.506;13.462;2024-02-23T12:01:41;11.40;91.20
8463;DHT22;4268;52.506;13.462;2024-02-23T12:04:07;11.40;91.30
8463;DHT22;4268;52.506;13.462;2024-02-23T12:06:33;11.40;91.40
8463;DHT22;4268;52.506;13.462;2024-02-23T12:08:59;11.40;90.90
8463;DHT22;4268;52.506;13.462;2024-02-23T12:11:25;11.40;91.20
8463;DHT22;4268;52.506;13.462;2024-02-23T12:13:51;11.40;91.40
8463;DHT22;4268;52.506;13.462;2024-02-23T12:16:17;11.40;91.30
8463;DHT22;4268;52.506;13.462;2024-02-23T12:18:42;11.40;90.90
8463;DHT22;4268;52.506;13.462;2024-02-23T12:21:08;11.40;91.00
8463;DHT22;4268;52.506;13.462;2024-02-23T12:23:45;11.50;91.10
8463;DHT22;4268;52.506;13.462;2024-02-23T12:26:12;11.60;91.20
8463;DHT22;4268;52.506;13.462;2024-02-23T12:28:39;11.70;91.00
8463;DHT22;4268;52.506;13.462;2024-02-23T12:31:06;11.60;91.40
8463;DHT22;4268;52.506;13.462;2024-02-23T12:33:32;11.50;91.20
8463;DHT22;4268;52.506;13.462;2024-02-23T12:35:59;11.40;91.20
8463;DHT22;4268;52.506;13.462;2024-02-23T12:38:25;10.80;90.90
8463;DHT22;4268;52.506;13.462;2024-02-23T12:40:51;10.50;91.50
8463;DHT22;4268;52.506;13.462;2024-02-23T12:43:18;10.50;91.80
8463;DHT22;4268;52.506;13.462;2024-02-23T12:45:44;10.60;91.60
8463;DHT22;4268;52.506;13.462;2024-02-23T12:48:11;10.80;91.90
8463;DHT22;4268;52.506;13.462;2024-02-23T12:50:36;11.00;91.80
8463;DHT22;4268;52.506;13.462;2024-02-23T12:53:03;11.10;91.50
8463;DHT22;4268;52.506;13.462;2024-02-23T12:55:29;11.20;91.40
8463;DHT22;4268;52.506;13.462;2024-02-23T12:57:55;11.20;91.10
8463;DHT22;4268;52.506;13.462;2024-02-23T13:00:21;11.10;90.70
8463;DHT22;4268;52.506;13.462;2024-02-23T13:02:48;11.00;91.10
8463;DHT22;4268;52.506;13.462;2024-02-23T13:05:14;10.80;91.00
8463;DHT22;4268;52.506;13.462;2024-02-23T13:07:41;10.80;91.40
8463;DHT22;4268;52.506;13.462;2024-02-23T13:10:09;10.80;91.40
8463;DHT22;4268;52.506;13.462;2024-02-23T13:12:35;10.60;91.60
8463;DHT22;4268;52.506;13.462;2024-02-23T13:15:02;10.60;91.80
8463;DHT22;4268;52.506;13.462;2024-02-23T13:17:28;10.80;91.80
8463;DHT22;4268;52.506;13.462;2024-02-23T13:19:54;10.90;91.80
8463;DHT22;4268;52.506;13.462;2024-02-23T13:22:19;11.10;91.80
8463;DHT22;4268;52.506;13.462;2024-02-23T13:24:45;10.70;91.80
8463;DHT22;4268;52.506;13.462;2024-02-23T13:27:10;10.60;92.00
8463;DHT22;4268;52.506;13.462;2024-02-23T13:29:38;10.40;92.30
8463;DHT22;4268;52.506;13.462;2024-02-23T13:32:13;10.30;92.50
8463;DHT22;4268;52.506;13.462;2024-02-23T13:34:38;10.10;92.40
8463;DHT22;4268;52.506;13.462;2024-02-23T13:37:04;10.20;92.50
8463;DHT22;4268;52.506;13.462;2024-02-23T13:39:29;10.20;92.70
8463;DHT22;4268;52.506;13.462;2024-02-23T13:41:55;10.30;92.50
8463;DHT22;4268;52.506;13.462;2024-02-23T13:44:21;10.40;92.50
8463;DHT22;4268;52.506;13.462;2024-02-23T13:46:46;10.50;92.60
8463;DHT22;4268;52.506;13.462;2024-02-23T13:49:11;10.50;92.60
8463;DHT22;4268;52.506;13.462;2024-02-23T13:51:38;10.30;92.50
8463;DHT22;4268;52.506;13.462;2024-02-23T13:54:04;10.30;92.50
8463;DHT22;4268;52.506;13.462;2024-02-23T13:56:29;10.20;92.80
8463;DHT22;4268;52.506;13.462;2024-02-23T13:58:55;10.10;92.40
8463;DHT22;4268;52.506;13.462;2024-02-23T14:01:20;10.20;92.50
8463;DHT22;4268;52.506;13.462;2024-02-23T14:03:46;10.40;92.70
8463;DHT22;4268;52.506;13.462;2024-02-23T14:06:12;10.50;92.60
8463;DHT22;4268;52.506;13.462;2024-02-23T14:08:37;10.50;92.60
8463;DHT22;4268;52.506;13.462;2024-02-23T14:11:03;10.40;92.50
8463;DHT22;4268;52.506;13.462;2024-02-23T14:13:33;10.50;92.70
8463;DHT22;4268;52.506;13.462;2024-02-23T14:15:58;10.50;92.70
8463;DHT22;4268;52.506;13.462;2024-02-23T14:18:24;10.40;92.60
8463;DHT22;4268;52.506;13.462;2024-02-23T14:20:50;10.20;92.60
8463;DHT22;4268;52.506;13.462;2024-02-23T14:23:17;10.00;93.00
8463;DHT22;4268;52.506;13.462;2024-02-23T14:25:43;9.90;93.40
8463;DHT22;4268;52.506;13.462;2024-02-23T14:28:09;9.80;93.30
8463;DHT22;4268;52.506;13.462;2024-02-23T14:30:35;9.80;93.50
8463;DHT22;4268;52.506;13.462;2024-02-23T14:33:01;9.80;93.40
8463;DHT22;4268;52.506;13.462;2024-02-23T14:35:29;9.80;93.30
8463;DHT22;4268;52.506;13.462;2024-02-23T14:37:55;9.90;93.30
8463;DHT22;4268;52.506;13.462;2024-02-23T14:40:20;9.90;93.40
8463;DHT22;4268;52.506;13.462;2024-02-23T14:42:46;9.90;93.00
8463;DHT22;4268;52.506;13.462;2024-02-23T14:45:12;9.80;93.00
8463;DHT22;4268;52.506;13.462;2024-02-23T14:47:39;9.80;93.30
8463;DHT22;4268;52.506;13.462;2024-02-23T14:50:05;9.80;92.90
8463;DHT22;4268;52.506;13.462;2024-02-23T14:52:30;9.70;93.00
8463;DHT22;4268;52.506;13.462;2024-02-23T14:54:56;9.70;92.80
8463;DHT22;4268;52.506;13.462;2024-02-23T14:57:21;9.60;92.70
8463;DHT22;4268;52.506;13.462;2024-02-23T14:59:47;9.60;92.90
8463;DHT22;4268;52.506;13.462;2024-02-23T15:02:22;9.50;93.00
8463;DHT22;4268;52.506;13.462;2024-02-23T15:04:48;9.40;92.90
8463;DHT22;4268;52.506;13.462;2024-02-23T15:07:14;9.40;93.00
8463;DHT22;4268;52.506;13.462;2024-02-23T15:09:40;9.40;93.20
8463;DHT22;4268;52.506;13.462;2024-02-23T15:12:06;9.30;93.40
8463;DHT22;4268;52.506;13.462;2024-02-23T15:14:31;9.40;93.40
8463;DHT22;4268;52.506;13.462;2024-02-23T15:16:57;9.40;93.60
8463;DHT22;4268;52.506;13.462;2024-02-23T15:19:22;9.40;93.60
8463;DHT22;4268;52.506;13.462;2024-02-23T15:21:48;9.40;93.90
8463;DHT22;4268;52.506;13.462;2024-02-23T15:24:14;9.40;94.00
8463;DHT22;4268;52.506;13.462;2024-02-23T15:26:43;9.40;94.10
8463;DHT22;4268;52.506;13.462;2024-02-23T15:29:09;9.40;94.50
8463;DHT22;4268;52.506;13.462;2024-02-23T15:31:35;9.40;94.50
8463;DHT22;4268;52.506;13.462;2024-02-23T15:34:00;9.40;94.70
8463;DHT22;4268;52.506;13.462;2024-02-23T15:36:27;9.30;94.80
8463;DHT22;4268;52.506;13.462;2024-02-23T15:38:53;9.30;95.10
8463;DHT22;4268;52.506;13.462;2024-02-23T15:41:24;9.20;95.10
8463;DHT22;4268;52.506;13.462;2024-02-23T15:43:49;9.10;95.40
8463;DHT22;4268;52.506;13.462;2024-02-23T15:46:15;9.10;95.60